Time;durP1;ratioP1;P1;durP2;ratioP2;P2;SDS_P1;SDS_P2;PMS_P1;PMS_P2;Temp;Humidity;BMP_temperature;BMP_pressure;BME280_temperature;BME280_humidity;BME280_pressure;Samples;Min_cycle;Max_cycle;Signal;HPM_P1;HPM_P2
2024/03/04 09:59:46;;;;;;;6.70;2.77;;;9.30;99.90;;;;;;5005820;28;20438;-84
2024/03/04 10:02:13;;;;;;;6.50;3.83;;;9.30;99.90;;;;;;5053963;28;20449;-84
2024/03/04 10:04:42;;;;;;;10.57;4.23;;;9.30;99.90;;;;;;5054186;28;20468;-84
2024/03/04 10:07:08;;;;;;;12.67;4.50;;;9.30;99.90;;;;;;5053606;28;20462;-85
2024/03/04 10:09:35;;;;;;;8.00;3.00;;;9.30;99.90;;;;;;5053731;28;20476;-84
2024/03/04 10:12:03;;;;;;;9.13;3.47;;;9.30;99.90;;;;;;5053613;28;20930;-84
2024/03/04 10:14:30;;;;;;;11.10;3.60;;;10.10;99.90;;;;;;5053671;28;20496;-84
2024/03/04 10:16:58;;;;;;;8.17;4.83;;;9.30;99.90;;;;;;5053381;28;21005;-84
2024/03/04 10:19:25;;;;;;;10.20;3.93;;;9.30;99.90;;;;;;5053512;28;20442;-84
2024/03/04 10:21:55;;;;;;;4.33;2.40;;;9.30;99.90;;;;;;5053394;28;20496;-84
2024/03/04 10:24:22;;;;;;;15.17;4.80;;;9.30;99.90;;;;;;5053669;28;20453;-84
2024/03/04 10:26:48;;;;;;;6.37;4.50;;;9.40;99.90;;;;;;5054596;28;20468;-84
2024/03/04 10:29:15;;;;;;;13.23;4.33;;;9.40;99.90;;;;;;5053205;28;20852;-84
2024/03/04 10:31:52;;;;;;;11.60;4.13;;;9.40;99.90;;;;;;5053606;28;20456;-84
2024/03/04 10:34:20;;;;;;;8.60;5.17;;;9.40;99.90;;;;;;5053613;28;20452;-84
2024/03/04 10:36:48;;;;;;;9.90;3.97;;;9.40;99.90;;;;;;5053736;28;20481;-84
2024/03/04 10:39:16;;;;;;;13.33;3.47;;;9.40;99.90;;;;;;5053888;28;20433;-84
2024/03/04 10:41:44;;;;;;;11.47;4.50;;;9.40;99.90;;;;;;5053793;28;20487;-84
2024/03/04 10:44:24;;;;;;;11.27;5.00;;;9.40;99.90;;;;;;5054350;28;20450;-84
2024/03/04 10:46:54;;;;;;;10.40;3.43;;;9.40;99.90;;;;;;5054190;28;20527;-84
2024/03/04 10:49:23;;;;;;;8.80;4.20;;;9.40;99.90;;;;;;5061421;28;20477;-84
2024/03/04 10:51:50;;;;;;;18.37;4.93;;;9.40;99.90;;;;;;5059555;28;20441;-84
2024/03/04 10:54:21;;;;;;;7.30;2.87;;;9.40;99.90;;;;;;5059395;28;20952;-84
2024/03/04 10:56:56;;;;;;;11.60;3.07;;;9.40;99.90;;;;;;5059347;28;21006;-84
2024/03/04 10:59:29;;;;;;;9.33;4.30;;;9.40;99.90;;;;;;5059493;28;20484;-84
2024/03/04 11:01:56;;;;;;;9.00;4.53;;;9.50;99.90;;;;;;5061638;28;20911;-84
2024/03/04 11:04:26;;;;;;;9.27;3.23;;;9.50;99.90;;;;;;5061071;28;20434;-84
2024/03/04 11:06:53;;;;;;;14.73;5.27;;;9.40;99.90;;;;;;5059684;28;20454;-84
2024/03/04 11:09:20;;;;;;;11.40;5.10;;;9.30;99.90;;;;;;5060751;28;20457;-84
2024/03/04 11:11:53;;;;;;;10.63;5.07;;;9.20;99.90;;;;;;5058094;28;20779;-84
2024/03/04 11:14:29;;;;;;;8.90;4.30;;;9.20;99.90;;;;;;5058175;28;20422;-83
2024/03/04 11:17:00;;;;;;;11.03;3.73;;;9.30;99.90;;;;;;5060608;28;20457;-84
2024/03/04 11:19:38;;;;;;;24.13;4.50;;;9.30;99.90;;;;;;5057909;28;20496;-83
2024/03/04 11:22:05;;;;;;;14.60;4.87;;;9.30;99.90;;;;;;5059168;28;20481;-83
2024/03/04 11:24:33;;;;;;;14.67;4.27;;;9.30;99.90;;;;;;5056714;28;20438;-84
2024/03/04 11:27:00;;;;;;;8.70;4.13;;;9.40;99.90;;;;;;5056115;28;20453;-83
2024/03/04 11:29:28;;;;;;;12.70;4.33;;;9.40;99.90;;;;;;5056726;28;20474;-83
2024/03/04 11:31:56;;;;;;;12.03;4.80;;;10.40;99.90;;;;;;5057902;28;20449;-83
2024/03/04 11:34:23;;;;;;;13.40;5.63;;;9.40;99.90;;;;;;5059907;28;20454;-84
2024/03/04 11:36:52;;;;;;;12.00;4.83;;;9.50;99.90;;;;;;5057846;28;20466;-84
2024/03/04 11:39:21;;;;;;;10.83;4.60;;;9.40;99.90;;;;;;5057701;28;20468;-84
2024/03/04 11:41:49;;;;;;;12.83;5.50;;;9.50;99.90;;;;;;5057590;28;20515;-83
2024/03/04 11:44:19;;;;;;;13.67;4.63;;;9.60;99.90;;;;;;5056551;28;20434;-80
2024/03/04 11:46:46;;;;;;;20.67;6.97;;;9.60;99.90;;;;;;5056202;28;20458;-81
2024/03/04 11:49:27;;;;;;;10.40;4.50;;;9.60;99.90;;;;;;5056168;28;21009;-80
2024/03/04 11:52:06;;;;;;;19.10;5.27;;;9.60;99.90;;;;;;5057146;28;20438;-80
2024/03/04 11:54:40;;;;;;;12.17;5.30;;;9.70;99.90;;;;;;5057797;28;20462;-81
2024/03/04 11:57:08;;;;;;;15.77;6.23;;;10.40;99.90;;;;;;5056466;28;20996;-80
2024/03/04 11:59:39;;;;;;;10.63;5.00;;;9.80;99.90;;;;;;5054628;28;20453;-81
2024/03/04 12:02:09;;;;;;;16.97;5.17;;;11.20;99.90;;;;;;5055795;28;20461;-80
2024/03/04 12:04:36;;;;;;;8.67;4.10;;;9.90;99.90;;;;;;5057222;28;20859;-80
2024/03/04 12:07:06;;;;;;;14.97;5.97;;;10.50;99.90;;;;;;5055405;28;20500;-81
2024/03/04 12:09:34;;;;;;;14.07;5.63;;;10.10;99.90;;;;;;5056649;28;20509;-80
2024/03/04 12:12:03;;;;;;;13.00;4.90;;;10.10;99.90;;;;;;5055162;28;20899;-80
2024/03/04 12:14:30;;;;;;;18.80;5.90;;;10.00;99.90;;;;;;5055332;28;20457;-81
2024/03/04 12:16:57;;;;;;;15.23;5.50;;;10.10;99.90;;;;;;5052092;28;20462;-81
2024/03/04 12:19:24;;;;;;;16.97;7.43;;;11.10;99.90;;;;;;5055179;28;20442;-81
2024/03/04 12:21:51;;;;;;;14.67;4.80;;;10.00;99.90;;;;;;5050744;28;20476;-81
2024/03/04 12:24:21;;;;;;;15.90;5.07;;;10.90;99.90;;;;;;5039441;28;20470;-81
2024/03/04 12:26:51;;;;;;;13.43;5.70;;;10.90;99.90;;;;;;5048404;28;20475;-81
2024/03/04 12:29:23;;;;;;;13.37;4.97;;;9.80;99.90;;;;;;5057446;28;20488;-81
2024/03/04 12:31:50;;;;;;;15.37;5.23;;;9.80;99.90;;;;;;5057629;28;20443;-82
2024/03/04 12:34:20;;;;;;;16.53;5.40;;;9.70;99.90;;;;;;5056559;28;20443;-81
2024/03/04 12:36:49;;;;;;;12.70;6.40;;;9.70;99.90;;;;;;5056087;28;20470;-81
2024/03/04 12:39:19;;;;;;;16.43;5.10;;;9.70;99.90;;;;;;5046335;28;20495;-81
2024/03/04 12:41:48;;;;;;;15.50;5.93;;;9.70;99.90;;;;;;5040503;28;20435;-81
2024/03/04 12:44:19;;;;;;;16.13;5.50;;;9.70;99.90;;;;;;5039710;28;20446;-81
2024/03/04 12:46:48;;;;;;;13.30;4.23;;;9.60;99.90;;;;;;5039179;28;20467;-81
2024/03/04 12:49:16;;;;;;;16.93;6.30;;;9.60;99.90;;;;;;5037837;28;20482;-81
2024/03/04 12:51:44;;;;;;;17.20;7.00;;;9.60;99.90;;;;;;5037109;28;20431;-81
2024/03/04 12:54:22;;;;;;;20.33;5.93;;;9.60;99.90;;;;;;5037370;28;20935;-81
2024/03/04 12:56:50;;;;;;;14.50;5.27;;;9.50;99.90;;;;;;5036402;28;20484;-81
2024/03/04 12:59:17;;;;;;;13.37;5.83;;;9.50;99.90;;;;;;5036320;28;20439;-81
2024/03/04 13:01:43;;;;;;;17.23;6.77;;;9.40;99.90;;;;;;5035950;28;20454;-81
2024/03/04 13:04:10;;;;;;;16.57;5.60;;;9.40;99.90;;;;;;5035184;28;20818;-81
2024/03/04 13:06:37;;;;;;;13.50;4.37;;;9.40;99.90;;;;;;5036007;28;20965;-81
2024/03/04 13:09:04;;;;;;;15.53;6.17;;;9.40;99.90;;;;;;5035631;28;20482;-81
2024/03/04 13:11:31;;;;;;;17.40;7.30;;;10.40;99.90;;;;;;5035036;28;20443;-81
2024/03/04 13:13:59;;;;;;;27.13;7.17;;;9.30;99.90;;;;;;5035454;28;20460;-81
2024/03/04 13:16:26;;;;;;;21.67;6.77;;;9.50;99.90;;;;;;5035573;28;20834;-81
2024/03/04 13:18:54;;;;;;;14.37;5.27;;;9.40;99.90;;;;;;5035331;28;20482;-81
2024/03/04 13:21:20;;;;;;;23.30;6.60;;;9.40;99.90;;;;;;5035192;28;20461;-81
2024/03/04 13:23:48;;;;;;;19.43;6.70;;;9.30;99.90;;;;;;5035221;28;20558;-81
2024/03/04 13:26:15;;;;;;;12.43;5.70;;;9.30;99.90;;;;;;5036420;28;20504;-81
2024/03/04 13:28:42;;;;;;;19.00;5.93;;;9.40;99.90;;;;;;5043095;28;20482;-81
2024/03/04 13:31:10;;;;;;;10.63;5.77;;;9.40;99.90;;;;;;5055130;28;20450;-82
2024/03/04 13:33:37;;;;;;;15.57;6.17;;;9.40;99.90;;;;;;5054109;28;20450;-82
2024/03/04 13:36:04;;;;;;;18.93;5.93;;;9.40;99.90;;;;;;5041520;28;20482;-81
2024/03/04 13:38:32;;;;;;;14.53;4.53;;;9.40;99.90;;;;;;5036464;28;20467;-82
2024/03/04 13:41:00;;;;;;;17.10;6.17;;;9.40;99.90;;;;;;5047678;28;20438;-82
2024/03/04 13:43:26;;;;;;;14.67;4.10;;;9.40;99.90;;;;;;5055864;28;20436;-81
2024/03/04 13:45:54;;;;;;;16.53;5.30;;;9.50;99.90;;;;;;5049871;28;20490;-82
2024/03/04 13:48:22;;;;;;;15.10;5.20;;;9.60;99.90;;;;;;5047956;28;20456;-82
2024/03/04 13:50:49;;;;;;;13.93;7.77;;;9.50;99.90;;;;;;5054470;28;20534;-81
2024/03/04 13:53:15;;;;;;;12.90;5.20;;;9.60;99.90;;;;;;5055118;28;20438;-81
2024/03/04 13:55:42;;;;;;;15.73;5.90;;;9.60;99.90;;;;;;5056282;28;20441;-82
2024/03/04 13:58:09;;;;;;;20.43;5.27;;;9.60;99.90;;;;;;5037361;28;20475;-82
2024/03/04 14:00:36;;;;;;;12.50;5.60;;;9.60;99.90;;;;;;5056370;28;20442;-82
2024/03/04 14:03:03;;;;;;;13.97;6.37;;;9.60;99.90;;;;;;5039135;28;20811;-82
2024/03/04 14:05:31;;;;;;;16.30;6.30;;;9.60;99.90;;;;;;5035594;28;20797;-82
2024/03/04 14:07:58;;;;;;;16.13;5.13;;;9.60;99.90;;;;;;5034176;28;20463;-82
2024/03/04 14:10:26;;;;;;;10.40;4.67;;;9.60;99.90;;;;;;5034223;28;20465;-83
2024/03/04 14:12:53;;;;;;;23.13;6.17;;;9.70;99.90;;;;;;5036269;28;20969;-83
2024/03/04 14:15:20;;;;;;;10.60;4.73;;;9.60;99.90;;;;;;5035562;28;20970;-82
2024/03/04 14:17:48;;;;;;;11.70;5.37;;;9.70;99.90;;;;;;5036677;28;20479;-82
2024/03/04 14:20:15;;;;;;;10.30;4.87;;;9.70;99.90;;;;;;5038082;28;20439;-82
2024/03/04 14:22:43;;;;;;;12.83;5.47;;;9.60;99.90;;;;;;5038100;28;20472;-82
2024/03/04 14:25:10;;;;;;;12.97;6.13;;;9.60;99.90;;;;;;5041408;28;20461;-82
2024/03/04 14:27:37;;;;;;;11.37;5.23;;;9.60;99.90;;;;;;5039943;28;20477;-82
2024/03/04 14:30:04;;;;;;;12.53;5.30;;;9.60;99.90;;;;;;5040089;28;20850;-82
2024/03/04 14:32:31;;;;;;;12.17;5.00;;;9.60;99.90;;;;;;5043333;28;20490;-81
2024/03/04 14:34:58;;;;;;;11.33;4.70;;;9.50;99.90;;;;;;5042583;28;20438;-81
2024/03/04 14:37:24;;;;;;;11.50;5.10;;;9.60;99.90;;;;;;5041863;28;20463;-82
2024/03/04 14:39:55;;;;;;;17.70;5.13;;;9.50;99.90;;;;;;5043039;28;20866;-83
2024/03/04 14:42:22;;;;;;;13.03;4.90;;;9.60;99.90;;;;;;5040578;28;20797;-81
2024/03/04 14:44:51;;;;;;;11.53;5.13;;;9.50;99.90;;;;;;5040828;28;20457;-81
2024/03/04 14:47:18;;;;;;;15.90;6.30;;;9.50;99.90;;;;;;5039818;28;20546;-81
2024/03/04 14:49:45;;;;;;;10.80;5.27;;;9.60;99.90;;;;;;5038848;28;20558;-81
2024/03/04 14:52:11;;;;;;;8.30;5.13;;;9.60;99.90;;;;;;5039868;28;20435;-81
2024/03/04 14:54:38;;;;;;;11.57;4.83;;;9.60;99.90;;;;;;5040286;28;20478;-81
2024/03/04 14:57:06;;;;;;;13.40;5.80;;;9.60;99.90;;;;;;5039423;28;20458;-81
2024/03/04 14:59:34;;;;;;;7.30;4.27;;;9.60;99.90;;;;;;5039115;28;20958;-81
2024/03/04 15:02:01;;;;;;;9.23;4.50;;;9.60;99.90;;;;;;5040485;28;20478;-81
2024/03/04 15:04:28;;;;;;;10.90;4.13;;;9.60;99.90;;;;;;5039434;28;20454;-81
2024/03/04 15:06:54;;;;;;;15.53;3.90;;;9.80;99.90;;;;;;5040272;28;20533;-81
2024/03/04 15:09:21;;;;;;;14.80;3.73;;;9.70;99.90;;;;;;5038886;28;20479;-81
2024/03/04 15:11:48;;;;;;;13.03;4.70;;;9.60;99.90;;;;;;5038463;28;20449;-82
2024/03/04 15:14:16;;;;;;;6.50;3.57;;;9.60;99.90;;;;;;5037992;28;20442;-81
2024/03/04 15:16:48;;;;;;;9.60;3.10;;;9.60;99.90;;;;;;5041451;28;20545;-81
2024/03/04 15:19:15;;;;;;;10.43;3.90;;;9.60;99.90;;;;;;5037352;28;20862;-81
2024/03/04 15:21:41;;;;;;;10.63;4.33;;;9.50;99.90;;;;;;5037658;28;20482;-80
2024/03/04 15:24:08;;;;;;;11.97;3.80;;;9.50;99.90;;;;;;5037254;28;20418;-80
2024/03/04 15:26:35;;;;;;;11.83;3.80;;;9.50;99.90;;;;;;5037319;28;20530;-81
2024/03/04 15:29:02;;;;;;;10.50;3.90;;;9.50;99.90;;;;;;5041493;28;20447;-81
2024/03/04 15:31:31;;;;;;;8.93;3.93;;;9.60;99.90;;;;;;5037589;28;20450;-81
2024/03/04 15:33:58;;;;;;;20.97;5.70;;;9.50;99.90;;;;;;5036181;28;20533;-81
2024/03/04 15:36:26;;;;;;;15.50;5.40;;;9.50;99.90;;;;;;5036138;28;20446;-81
2024/03/04 15:38:53;;;;;;;10.77;4.47;;;9.50;99.90;;;;;;5036310;28;20450;-81
2024/03/04 15:41:20;;;;;;;6.57;3.93;;;9.50;99.90;;;;;;5036685;28;20443;-81
2024/03/04 15:43:46;;;;;;;12.17;4.20;;;9.40;99.90;;;;;;5037090;28;20969;-81
2024/03/04 15:46:21;;;;;;;10.13;4.37;;;9.40;99.90;;;;;;5039121;28;20450;-82
2024/03/04 15:48:49;;;;;;;17.43;5.27;;;9.40;99.90;;;;;;5036992;28;20426;-81
2024/03/04 15:51:16;;;;;;;14.13;4.17;;;9.50;99.90;;;;;;5040150;28;20447;-82
2024/03/04 15:53:43;;;;;;;17.27;4.37;;;9.50;99.90;;;;;;5036865;28;20801;-81
2024/03/04 15:56:10;;;;;;;11.93;5.37;;;9.40;99.90;;;;;;5039440;28;20455;-81
2024/03/04 15:58:36;;;;;;;10.53;3.23;;;9.40;99.90;;;;;;5040190;28;20447;-81
2024/03/04 16:01:04;;;;;;;11.77;3.80;;;9.50;99.90;;;;;;5041024;28;20449;-81
2024/03/04 16:03:31;;;;;;;11.30;3.50;;;9.40;99.90;;;;;;5040420;28;20481;-81
2024/03/04 16:05:59;;;;;;;11.73;5.47;;;9.40;99.90;;;;;;5039884;28;20454;-81
2024/03/04 16:08:25;;;;;;;9.30;2.63;;;9.40;99.90;;;;;;5039461;28;20463;-81
2024/03/04 16:10:52;;;;;;;8.27;3.80;;;9.40;99.90;;;;;;5039228;28;20494;-81
2024/03/04 16:13:19;;;;;;;10.07;4.20;;;9.40;99.90;;;;;;5038980;28;20443;-81
2024/03/04 16:15:46;;;;;;;12.70;4.63;;;9.40;99.90;;;;;;5038504;28;20457;-81
2024/03/04 16:18:12;;;;;;;15.43;4.40;;;9.40;99.90;;;;;;5038198;28;20466;-81
2024/03/04 16:20:39;;;;;;;11.90;4.37;;;9.30;99.90;;;;;;5037841;28;20439;-81
2024/03/04 16:23:07;;;;;;;13.03;3.83;;;9.30;99.90;;;;;;5053100;28;20470;-81
2024/03/04 16:25:34;;;;;;;7.07;4.33;;;9.30;99.90;;;;;;5058331;28;20446;-81
2024/03/04 16:28:01;;;;;;;6.70;2.70;;;9.30;99.90;;;;;;5059514;28;20470;-81
2024/03/04 16:30:28;;;;;;;10.97;3.20;;;9.20;99.90;;;;;;5057619;28;20489;-81
2024/03/04 16:32:55;;;;;;;7.07;3.83;;;9.30;99.90;;;;;;5053019;28;20520;-81
2024/03/04 16:35:26;;;;;;;7.63;4.27;;;9.20;99.90;;;;;;5056081;28;20458;-81
2024/03/04 16:37:53;;;;;;;10.90;3.47;;;9.10;99.90;;;;;;5060459;28;20998;-81
2024/03/04 16:40:21;;;;;;;11.67;4.10;;;10.10;99.90;;;;;;5064728;28;20437;-81
2024/03/04 16:42:48;;;;;;;11.00;4.10;;;9.10;99.90;;;;;;5056371;28;20454;-81
2024/03/04 16:45:15;;;;;;;8.93;3.00;;;9.10;99.90;;;;;;5059378;28;20438;-82
2024/03/04 16:47:42;;;;;;;13.43;3.83;;;9.10;99.90;;;;;;5059206;28;20474;-81
2024/03/04 16:50:09;;;;;;;9.17;5.07;;;10.60;99.90;;;;;;5056963;28;20476;-82
2024/03/04 16:52:37;;;;;;;10.63;4.67;;;9.10;99.90;;;;;;5056017;28;20477;-81
2024/03/04 16:55:05;;;;;;;15.17;5.00;;;9.00;99.90;;;;;;5066373;28;20450;-81
2024/03/04 16:57:33;;;;;;;10.73;4.20;;;9.00;99.90;;;;;;5060299;28;20470;-81
2024/03/04 17:00:00;;;;;;;7.63;4.37;;;9.00;99.90;;;;;;5059558;28;20449;-82
2024/03/04 17:02:28;;;;;;;15.67;3.80;;;9.00;99.90;;;;;;5058863;28;20453;-81
2024/03/04 17:04:55;;;;;;;11.00;3.40;;;9.10;99.90;;;;;;5057836;28;20932;-81
2024/03/04 17:07:22;;;;;;;8.17;3.23;;;9.00;99.90;;;;;;5055037;28;20470;-81
2024/03/04 17:09:49;;;;;;;9.33;4.07;;;9.10;99.90;;;;;;5057209;28;20477;-81
2024/03/04 17:12:15;;;;;;;8.13;3.43;;;9.00;99.90;;;;;;5057463;28;20442;-81
2024/03/04 17:14:43;;;;;;;6.67;2.70;;;8.90;99.90;;;;;;5058015;28;20802;-81
2024/03/04 17:17:11;;;;;;;13.63;3.30;;;8.90;99.90;;;;;;5057909;28;20470;-81
2024/03/04 17:19:40;;;;;;;12.13;4.43;;;8.90;99.90;;;;;;5065451;28;20456;-81
2024/03/04 17:22:07;;;;;;;11.17;3.93;;;8.90;99.90;;;;;;5076540;28;20485;-81
2024/03/04 17:24:34;;;;;;;13.10;3.70;;;8.90;99.90;;;;;;5073690;28;20850;-82
2024/03/04 17:27:01;;;;;;;11.80;4.77;;;8.90;99.90;;;;;;5056662;28;20552;-81
2024/03/04 17:29:27;;;;;;;14.70;4.50;;;8.80;99.90;;;;;;5057427;28;20441;-82
2024/03/04 17:31:56;;;;;;;9.83;4.20;;;8.90;99.90;;;;;;5057852;28;20799;-82
2024/03/04 17:34:23;;;;;;;8.30;3.83;;;8.80;99.90;;;;;;5050192;28;20456;-81
2024/03/04 17:36:50;;;;;;;5.97;3.77;;;8.80;99.90;;;;;;5057033;28;20461;-81
2024/03/04 17:39:17;;;;;;;8.93;4.20;;;8.80;99.90;;;;;;5057362;28;20445;-82
2024/03/04 17:41:43;;;;;;;11.03;4.90;;;8.80;99.90;;;;;;5057426;28;20814;-81
2024/03/04 17:44:10;;;;;;;14.50;5.30;;;8.80;99.90;;;;;;5056717;28;20438;-81
2024/03/04 17:46:44;;;;;;;8.10;3.63;;;8.80;99.90;;;;;;5056800;28;20448;-83
2024/03/04 17:49:13;;;;;;;13.70;5.10;;;8.70;99.90;;;;;;5056764;28;20957;-82
2024/03/04 17:51:39;;;;;;;13.17;4.40;;;8.70;99.90;;;;;;5057536;28;20478;-81
2024/03/04 17:54:06;;;;;;;11.87;3.80;;;8.70;99.90;;;;;;5056476;28;20469;-82
2024/03/04 17:56:33;;;;;;;8.87;4.07;;;8.70;99.90;;;;;;5054804;28;20452;-82
2024/03/04 17:59:00;;;;;;;10.30;3.77;;;8.60;99.90;;;;;;5057596;28;20540;-81
2024/03/04 18:01:27;;;;;;;10.43;5.13;;;8.50;99.90;;;;;;5061154;28;20499;-81
2024/03/04 18:03:54;;;;;;;10.00;3.53;;;8.50;99.90;;;;;;5061331;28;20507;-81
2024/03/04 18:06:22;;;;;;;8.77;3.87;;;8.60;99.90;;;;;;5057875;28;20446;-81
2024/03/04 18:08:48;;;;;;;6.63;3.23;;;8.60;99.90;;;;;;5057514;28;20445;-81
2024/03/04 18:11:15;;;;;;;7.90;2.60;;;8.60;99.90;;;;;;5056038;28;21013;-81
2024/03/04 18:13:42;;;;;;;7.53;3.60;;;8.60;99.90;;;;;;5056038;28;20511;-81
2024/03/04 18:16:09;;;;;;;10.97;5.07;;;8.60;99.90;;;;;;5055436;28;20441;-81
2024/03/04 18:18:35;;;;;;;9.37;3.40;;;8.60;99.90;;;;;;5055485;28;20524;-81
2024/03/04 18:21:02;;;;;;;10.40;3.70;;;8.50;99.90;;;;;;5055578;28;20446;-81
2024/03/04 18:23:31;;;;;;;10.27;4.23;;;8.60;99.90;;;;;;5055652;28;20473;-81
2024/03/04 18:25:59;;;;;;;10.50;5.10;;;8.50;99.90;;;;;;5055452;28;20438;-81
2024/03/04 18:28:26;;;;;;;9.53;4.20;;;8.50;99.90;;;;;;5055621;28;20477;-81
2024/03/04 18:30:53;;;;;;;7.70;3.57;;;8.50;99.90;;;;;;5055588;28;20846;-81
2024/03/04 18:33:20;;;;;;;15.03;4.43;;;8.60;99.90;;;;;;5055943;28;20448;-81
2024/03/04 18:35:47;;;;;;;10.57;4.80;;;8.50;99.90;;;;;;5056496;28;20448;-81
2024/03/04 18:38:13;;;;;;;7.87;3.80;;;8.40;99.90;;;;;;5061403;28;20466;-81
2024/03/04 18:40:42;;;;;;;11.57;5.00;;;8.40;99.90;;;;;;5058777;28;20450;-82
2024/03/04 18:43:13;;;;;;;7.70;4.57;;;8.30;99.90;;;;;;5058657;28;20446;-81
2024/03/04 18:45:39;;;;;;;9.10;4.40;;;8.40;99.90;;;;;;5059400;28;20968;-82
2024/03/04 18:48:07;;;;;;;15.10;5.30;;;8.40;99.90;;;;;;5058575;28;20480;-82
2024/03/04 18:50:34;;;;;;;7.30;4.50;;;8.30;99.90;;;;;;5057602;28;20484;-82
2024/03/04 18:53:00;;;;;;;9.97;4.30;;;8.40;99.90;;;;;;5057939;28;20437;-82
2024/03/04 18:55:27;;;;;;;4.80;4.00;;;8.40;99.90;;;;;;5058294;28;20449;-82
2024/03/04 18:57:55;;;;;;;12.87;4.77;;;8.40;99.90;;;;;;5057292;28;20808;-82
2024/03/04 19:00:22;;;;;;;12.60;4.23;;;8.40;99.90;;;;;;5058456;28;20444;-82
2024/03/04 19:02:49;;;;;;;13.40;4.00;;;8.40;99.90;;;;;;5058084;28;20818;-82
2024/03/04 19:05:16;;;;;;;15.80;4.83;;;8.40;99.90;;;;;;5058291;28;20453;-82
2024/03/04 19:07:42;;;;;;;7.90;3.53;;;8.40;99.90;;;;;;5057492;28;20461;-82
2024/03/04 19:10:09;;;;;;;14.93;3.90;;;8.40;99.90;;;;;;5059720;28;20437;-82
2024/03/04 19:12:38;;;;;;;6.27;3.50;;;8.40;99.90;;;;;;5060986;28;20476;-82
2024/03/04 19:15:07;;;;;;;14.10;4.70;;;8.40;99.90;;;;;;5061233;28;20464;-82
2024/03/04 19:17:34;;;;;;;5.57;3.43;;;8.40;99.90;;;;;;5061079;28;20466;-82
2024/03/04 19:20:03;;;;;;;7.27;3.20;;;8.40;99.90;;;;;;5060284;28;20440;-82
2024/03/04 19:22:30;;;;;;;8.63;3.80;;;8.40;99.90;;;;;;5060305;28;20504;-82
2024/03/04 19:24:57;;;;;;;8.90;4.00;;;8.40;99.90;;;;;;5060841;28;20964;-82
2024/03/04 19:27:25;;;;;;;9.73;4.00;;;8.40;99.90;;;;;;5060075;28;20462;-82
2024/03/04 19:29:51;;;;;;;11.17;4.40;;;8.40;99.90;;;;;;5060115;28;20446;-82
2024/03/04 19:32:19;;;;;;;14.10;6.50;;;8.40;99.90;;;;;;5060041;28;20481;-82
2024/03/04 19:34:46;;;;;;;11.73;6.23;;;8.40;99.90;;;;;;5059445;28;20422;-82
2024/03/04 19:37:13;;;;;;;9.63;4.50;;;8.40;99.90;;;;;;5059101;28;20470;-82
2024/03/04 19:39:40;;;;;;;6.43;3.03;;;8.40;99.90;;;;;;5059751;28;20836;-82
2024/03/04 19:42:07;;;;;;;12.67;4.00;;;8.40;99.90;;;;;;5059617;28;20438;-81
2024/03/04 19:44:33;;;;;;;19.33;5.47;;;8.40;99.90;;;;;;5059340;28;20463;-82
2024/03/04 19:47:00;;;;;;;9.40;4.27;;;8.40;99.90;;;;;;5059523;28;20841;-82
2024/03/04 19:49:28;;;;;;;5.83;3.00;;;8.50;99.90;;;;;;5060174;28;20823;-82
2024/03/04 19:51:55;;;;;;;5.63;3.27;;;8.40;99.90;;;;;;5060197;28;20477;-81
2024/03/04 19:54:22;;;;;;;13.07;5.60;;;8.40;99.90;;;;;;5060071;28;20953;-81
2024/03/04 19:56:49;;;;;;;11.80;3.97;;;8.40;99.90;;;;;;5059771;28;20466;-81
2024/03/04 19:59:15;;;;;;;11.20;3.33;;;8.30;99.90;;;;;;5061946;28;20442;-82
2024/03/04 20:01:42;;;;;;;11.93;4.63;;;8.40;99.90;;;;;;5062794;28;20442;-82
2024/03/04 20:04:09;;;;;;;9.47;4.00;;;8.30;99.90;;;;;;5062611;28;20472;-82
2024/03/04 20:06:37;;;;;;;8.10;3.90;;;8.30;99.90;;;;;;5061260;28;20521;-82
2024/03/04 20:09:04;;;;;;;13.63;4.73;;;8.30;99.90;;;;;;5062580;28;20449;-82
2024/03/04 20:11:31;;;;;;;14.40;6.60;;;8.30;99.90;;;;;;5065263;28;20491;-82
2024/03/04 20:13:58;;;;;;;16.00;5.10;;;8.30;99.90;;;;;;5067086;28;20449;-81
2024/03/04 20:16:25;;;;;;;9.40;4.63;;;9.50;99.90;;;;;;5068727;28;20442;-81
2024/03/04 20:18:51;;;;;;;12.83;4.50;;;8.30;99.90;;;;;;5066250;28;20441;-82
2024/03/04 20:21:18;;;;;;;7.30;4.10;;;8.30;99.90;;;;;;5063258;28;20448;-82
2024/03/04 20:23:48;;;;;;;9.27;5.40;;;8.30;99.90;;;;;;5039264;28;20884;-82
2024/03/04 20:26:15;;;;;;;9.37;4.93;;;8.30;99.90;;;;;;5041167;28;20446;-82
2024/03/04 20:28:42;;;;;;;19.40;4.87;;;8.30;99.90;;;;;;5040995;28;20964;-82
2024/03/04 20:31:09;;;;;;;7.87;2.97;;;8.30;99.90;;;;;;5040653;28;20486;-82
2024/03/04 20:33:35;;;;;;;11.23;5.67;;;8.30;99.90;;;;;;5040768;28;20962;-82
2024/03/04 20:36:04;;;;;;;11.07;4.70;;;8.30;99.90;;;;;;5041381;28;20450;-82
2024/03/04 20:38:30;;;;;;;11.00;4.70;;;8.30;99.90;;;;;;5042293;28;20466;-81
2024/03/04 20:40:59;;;;;;;12.17;5.77;;;8.30;99.90;;;;;;5041615;28;20447;-82
2024/03/04 20:43:25;;;;;;;11.17;5.23;;;8.30;99.90;;;;;;5039915;28;20446;-81
2024/03/04 20:45:52;;;;;;;9.50;4.00;;;8.30;99.90;;;;;;5039961;28;20439;-82
2024/03/04 20:48:21;;;;;;;8.70;4.20;;;8.30;99.90;;;;;;5039791;28;20462;-81
2024/03/04 20:50:47;;;;;;;13.57;5.33;;;8.30;99.90;;;;;;5040182;28;20506;-81
2024/03/04 20:53:14;;;;;;;9.93;5.10;;;8.30;99.90;;;;;;5040135;28;20795;-82
2024/03/04 20:55:42;;;;;;;18.07;5.10;;;8.30;99.90;;;;;;5044531;28;20442;-82
2024/03/04 20:58:10;;;;;;;10.03;4.00;;;8.30;99.90;;;;;;5040942;28;20463;-82
2024/03/04 21:00:37;;;;;;;11.37;5.33;;;8.30;99.90;;;;;;5041740;28;20454;-82
2024/03/04 21:03:05;;;;;;;12.67;5.90;;;8.30;99.90;;;;;;5041474;28;20478;-82
2024/03/04 21:05:31;;;;;;;14.80;4.07;;;8.30;99.90;;;;;;5040742;28;20457;-82
2024/03/04 21:07:58;;;;;;;9.00;4.50;;;8.30;99.90;;;;;;5040430;28;20991;-82
2024/03/04 21:10:26;;;;;;;16.23;6.47;;;8.20;99.90;;;;;;5040070;28;20443;-82
2024/03/04 21:12:54;;;;;;;10.10;5.07;;;8.20;99.90;;;;;;5040666;28;20496;-82
2024/03/04 21:15:22;;;;;;;11.20;4.10;;;8.20;99.90;;;;;;5040304;28;20454;-82
2024/03/04 21:17:51;;;;;;;11.83;4.53;;;8.20;99.90;;;;;;5040250;28;20478;-82
2024/03/04 21:20:20;;;;;;;21.53;5.70;;;8.20;99.90;;;;;;5039452;28;20463;-82
2024/03/04 21:22:50;;;;;;;11.43;4.20;;;8.20;99.90;;;;;;5038905;28;20479;-82
2024/03/04 21:25:17;;;;;;;17.27;6.47;;;8.20;99.90;;;;;;5037066;28;20818;-82
2024/03/04 21:27:44;;;;;;;12.37;3.90;;;8.30;99.90;;;;;;5046947;28;20978;-82
2024/03/04 21:30:12;;;;;;;13.87;5.07;;;8.30;99.90;;;;;;5047058;28;20424;-82
2024/03/04 21:32:41;;;;;;;16.33;6.90;;;8.20;99.90;;;;;;5052379;28;20486;-82
2024/03/04 21:35:09;;;;;;;16.23;6.00;;;8.20;99.90;;;;;;5053452;28;20450;-82
2024/03/04 21:37:36;;;;;;;11.20;5.13;;;8.20;99.90;;;;;;5038192;28;20477;-82
2024/03/04 21:40:04;;;;;;;10.00;4.77;;;8.20;99.90;;;;;;5037518;28;20459;-82
2024/03/04 21:42:30;;;;;;;11.67;3.90;;;8.20;99.90;;;;;;5037556;28;20443;-82
2024/03/04 21:44:57;;;;;;;16.33;4.77;;;8.20;99.90;;;;;;5036861;28;20462;-82
2024/03/04 21:47:24;;;;;;;11.40;4.40;;;8.20;99.90;;;;;;5037103;28;20459;-82
2024/03/04 21:49:52;;;;;;;11.80;5.10;;;9.20;99.90;;;;;;5037398;28;20454;-82
2024/03/04 21:52:19;;;;;;;15.57;5.20;;;8.20;99.90;;;;;;5037057;28;20486;-83
2024/03/04 21:54:46;;;;;;;15.60;5.77;;;8.20;99.90;;;;;;5036420;28;20438;-81
2024/03/04 21:57:12;;;;;;;11.80;4.20;;;8.30;99.90;;;;;;5037013;28;20458;-81
2024/03/04 21:59:40;;;;;;;21.90;5.57;;;8.30;99.90;;;;;;5027348;28;20461;-78
2024/03/04 22:02:06;;;;;;;17.57;5.13;;;8.30;99.90;;;;;;5027746;28;20453;-82
2024/03/04 22:04:34;;;;;;;10.00;4.73;;;8.20;99.90;;;;;;5035193;28;20530;-82
2024/03/04 22:07:02;;;;;;;14.90;4.60;;;8.20;99.90;;;;;;5036513;28;20838;-82
2024/03/04 22:09:29;;;;;;;11.93;5.37;;;8.20;99.90;;;;;;5036012;28;20458;-82
2024/03/04 22:11:56;;;;;;;17.70;6.43;;;8.30;99.90;;;;;;5054875;28;20584;-82
2024/03/04 22:14:23;;;;;;;16.30;6.40;;;8.30;99.90;;;;;;5050529;28;20450;-82
2024/03/04 22:16:49;;;;;;;14.13;4.90;;;8.30;99.90;;;;;;5055164;28;20461;-81
2024/03/04 22:19:17;;;;;;;11.93;5.13;;;8.30;99.90;;;;;;5053939;28;20457;-82
2024/03/04 22:21:43;;;;;;;9.73;4.10;;;8.30;99.90;;;;;;5055186;28;20442;-82
2024/03/04 22:24:11;;;;;;;15.70;5.73;;;8.30;99.90;;;;;;5056646;28;20481;-82
2024/03/04 22:26:38;;;;;;;14.97;5.20;;;8.30;99.90;;;;;;5055447;28;20950;-82
2024/03/04 22:29:06;;;;;;;6.17;3.00;;;8.70;99.90;;;;;;5057611;28;20872;-81
2024/03/04 22:31:34;;;;;;;7.37;4.80;;;8.30;99.90;;;;;;5062596;28;20478;-82
2024/03/04 22:34:02;;;;;;;13.40;5.03;;;8.30;99.90;;;;;;5064600;28;20529;-82
2024/03/04 22:36:28;;;;;;;9.30;5.30;;;8.30;99.90;;;;;;5058419;28;20457;-80
2024/03/04 22:38:55;;;;;;;12.63;4.23;;;8.30;99.90;;;;;;5060041;28;20446;-81
2024/03/04 22:41:23;;;;;;;14.43;5.20;;;8.30;99.90;;;;;;5056733;28;20435;-82
2024/03/04 22:43:50;;;;;;;9.50;4.20;;;8.20;99.90;;;;;;5057840;28;20450;-81
2024/03/04 22:46:17;;;;;;;25.43;5.70;;;8.20;99.90;;;;;;5060346;28;20504;-81
2024/03/04 22:48:44;;;;;;;12.57;4.27;;;8.20;99.90;;;;;;5059542;28;20483;-81